Time;durP1;ratioP1;P1;durP2;ratioP2;P2;SDS_P1;SDS_P2;PMS_P1;PMS_P2;Temp;Humidity;BMP_temperature;BMP_pressure;BME280_temperature;BME280_humidity;BME280_pressure;Samples;Min_cycle;Max_cycle;Signal;HPM_P1;HPM_P2
2023/01/18 00:04:40;;;;;;;1.35;0.57;;;;;;;;;;10418084;28;20033;-77
2023/01/18 00:09:44;;;;;;;1.90;0.40;;;;;;;;;;10431091;28;20024;-78
2023/01/18 00:14:45;;;;;;;3.67;0.68;;;;;;;;;;10429915;28;20132;-76
2023/01/18 00:19:46;;;;;;;6.80;0.82;;;;;;;;;;10430899;28;20024;-76
2023/01/18 00:24:46;;;;;;;0.85;0.47;;;;;;;;;;10429836;28;20029;-74
2023/01/18 00:29:48;;;;;;;1.95;0.50;;;;;;;;;;10431731;28;20036;-75
2023/01/18 00:34:48;;;;;;;4.25;0.73;;;;;;;;;;10430944;28;20060;-76
2023/01/18 00:39:49;;;;;;;5.75;0.55;;;;;;;;;;10448231;28;20108;-75
2023/01/18 00:44:49;;;;;;;6.15;0.55;;;;;;;;;;10448107;28;20143;-74
2023/01/18 00:49:50;;;;;;;0.95;0.35;;;;;;;;;;10449706;28;20056;-75
2023/01/18 00:54:50;;;;;;;1.55;0.65;;;;;;;;;;10430192;28;20060;-73
2023/01/18 00:59:50;;;;;;;2.60;0.75;;;;;;;;;;10435314;28;20017;-73
2023/01/18 01:10:09;;;;;;;1.02;0.60;;;;;;;;;;10411665;28;20021;-76
2023/01/18 01:31:23;;;;;;;1.48;0.60;;;;;;;;;;10307364;28;20025;-75
2023/01/18 01:36:26;;;;;;;2.85;0.50;;;;;;;;;;10420923;28;20021;-74
2023/01/18 01:41:31;;;;;;;3.45;0.60;;;;;;;;;;10428092;28;20433;-76
2023/01/18 01:46:31;;;;;;;16.35;0.70;;;;;;;;;;10428638;28;20021;-75
2023/01/18 01:51:32;;;;;;;0.30;0.30;;;;;;;;;;10428280;28;20506;-73
2023/01/18 01:56:33;;;;;;;0.68;0.15;;;;;;;;;;10425921;28;20029;-78
2023/01/18 02:01:35;;;;;;;1.10;0.73;;;;;;;;;;10445470;28;20021;-77
2023/01/18 02:06:36;;;;;;;8.18;0.55;;;;;;;;;;10445565;28;20705;-77
2023/01/18 02:11:37;;;;;;;3.95;0.45;;;;;;;;;;10445391;28;20509;-78
2023/01/18 02:16:44;;;;;;;7.53;0.40;;;;;;;;;;10426540;28;20065;-76
2023/01/18 02:21:55;;;;;;;2.75;0.60;;;;;;;;;;10427257;28;20021;-74
2023/01/18 02:27:03;;;;;;;1.83;0.50;;;;;;;;;;10427373;28;20086;-72
2023/01/18 02:32:07;;;;;;;2.90;1.35;;;;;;;;;;10410245;28;20521;-76
2023/01/18 02:37:10;;;;;;;4.57;0.45;;;;;;;;;;10433897;28;20159;-75
2023/01/18 02:47:36;;;;;;;1.73;0.80;;;;;;;;;;10444076;28;20419;-72
2023/01/18 02:52:48;;;;;;;5.80;2.10;;;;;;;;;;10425997;28;20021;-73
2023/01/18 02:57:48;;;;;;;4.50;1.55;;;;;;;;;;10426104;28;20479;-78
2023/01/18 03:02:49;;;;;;;5.43;1.00;;;;;;;;;;10443564;28;20017;-73
2023/01/18 03:07:55;;;;;;;5.18;0.90;;;;;;;;;;10425348;28;20921;-71
2023/01/18 03:13:00;;;;;;;3.70;0.68;;;;;;;;;;10425557;28;20075;-76
2023/01/18 03:18:19;;;;;;;1.58;0.65;;;;;;;;;;10443916;28;20028;-79
2023/01/18 03:23:41;;;;;;;4.57;0.70;;;;;;;;;;10433030;28;20071;-72
2023/01/18 03:34:16;;;;;;;4.78;0.55;;;;;;;;;;10447934;28;20107;-73
2023/01/18 03:39:19;;;;;;;1.45;0.25;;;;;;;;;;10429548;28;20163;-71
2023/01/18 03:44:28;;;;;;;0.80;0.47;;;;;;;;;;10423879;28;20139;-70
2023/01/18 03:49:30;;;;;;;3.60;0.40;;;;;;;;;;10424923;28;20129;-74
2023/01/18 03:54:33;;;;;;;1.17;0.55;;;;;;;;;;10441363;28;20013;-71
2023/01/18 03:59:35;;;;;;;3.90;0.60;;;;;;;;;;10402028;28;20537;-75
2023/01/18 04:04:35;;;;;;;4.10;0.50;;;;;;;;;;10421832;28;20029;-74
2023/01/18 04:09:36;;;;;;;9.20;1.48;;;;;;;;;;10419918;28;20025;-72
2023/01/18 04:14:36;;;;;;;2.65;0.60;;;;;;;;;;10419984;28;20407;-74
2023/01/18 04:19:39;;;;;;;6.50;1.30;;;;;;;;;;10438619;28;20024;-73
2023/01/18 04:24:39;;;;;;;3.85;0.60;;;;;;;;;;10419669;28;20021;-74
2023/01/18 04:29:43;;;;;;;6.82;0.65;;;;;;;;;;10438465;28;20065;-78
2023/01/18 04:34:43;;;;;;;2.97;0.70;;;;;;;;;;10423664;28;20112;-74
2023/01/18 04:39:45;;;;;;;1.88;0.47;;;;;;;;;;10448360;28;20269;-77
2023/01/18 04:44:45;;;;;;;2.58;0.40;;;;;;;;;;10428974;28;20041;-76
2023/01/18 04:49:46;;;;;;;0.30;0.30;;;;;;;;;;10428496;28;20075;-73
2023/01/18 04:54:46;;;;;;;1.95;0.70;;;;;;;;;;10427819;28;20493;-74
2023/01/18 04:59:47;;;;;;;9.55;0.80;;;;;;;;;;10445917;28;20017;-73
2023/01/18 05:04:47;;;;;;;5.53;0.70;;;;;;;;;;10430156;28;20430;-75
2023/01/18 05:09:48;;;;;;;6.38;0.85;;;;;;;;;;10446299;28;20021;-73
2023/01/18 05:14:48;;;;;;;8.45;0.95;;;;;;;;;;10422354;28;20025;-79
2023/01/18 05:19:50;;;;;;;11.20;1.27;;;;;;;;;;10424005;28;20060;-79
2023/01/18 05:24:50;;;;;;;3.78;0.65;;;;;;;;;;10438239;28;20082;-77
2023/01/18 05:29:50;;;;;;;7.07;0.90;;;;;;;;;;10387459;28;20091;-72
2023/01/18 05:34:51;;;;;;;13.20;0.95;;;;;;;;;;10419847;28;20028;-78
2023/01/18 05:39:51;;;;;;;3.80;0.65;;;;;;;;;;10426017;28;20029;-76
2023/01/18 05:44:51;;;;;;;7.72;1.08;;;;;;;;;;10426061;28;20045;-76
2023/01/18 05:49:52;;;;;;;7.60;0.90;;;;;;;;;;10422896;28;20037;-71
2023/01/18 05:54:52;;;;;;;6.80;0.98;;;;;;;;;;10413772;28;20092;-76
2023/01/18 05:59:52;;;;;;;3.88;0.73;;;;;;;;;;10436229;28;20415;-74
2023/01/18 06:04:52;;;;;;;6.65;0.80;;;;;;;;;;10437303;28;20029;-79
2023/01/18 06:09:53;;;;;;;4.35;0.77;;;;;;;;;;10433854;28;20021;-78
2023/01/18 06:14:53;;;;;;;6.95;0.80;;;;;;;;;;10401764;28;20514;-77
2023/01/18 06:19:53;;;;;;;12.33;0.83;;;;;;;;;;10423559;28;20017;-79
2023/01/18 06:24:54;;;;;;;1.48;0.60;;;;;;;;;;10426548;28;20025;-81
2023/01/18 06:29:55;;;;;;;5.93;0.55;;;;;;;;;;10426109;28;20478;-76
2023/01/18 06:34:55;;;;;;;5.60;0.63;;;;;;;;;;10395942;28;20025;-77
2023/01/18 06:39:55;;;;;;;3.85;0.68;;;;;;;;;;10423522;28;20017;-78
2023/01/18 06:44:56;;;;;;;5.60;0.82;;;;;;;;;;10440878;28;20049;-77
2023/01/18 06:49:56;;;;;;;9.50;0.70;;;;;;;;;;10405155;28;20045;-73
2023/01/18 06:54:56;;;;;;;4.47;0.77;;;;;;;;;;10402099;28;20306;-73
2023/01/18 06:59:56;;;;;;;3.53;0.63;;;;;;;;;;10416682;28;20021;-79
2023/01/18 07:04:57;;;;;;;6.82;1.20;;;;;;;;;;10416517;28;20037;-79
2023/01/18 07:09:57;;;;;;;1.15;0.63;;;;;;;;;;10420522;28;20025;-76
2023/01/18 07:14:57;;;;;;;6.25;1.23;;;;;;;;;;10397832;28;20106;-78
2023/01/18 07:19:58;;;;;;;8.93;1.10;;;;;;;;;;10423771;28;20021;-77
2023/01/18 07:24:58;;;;;;;4.88;1.30;;;;;;;;;;10424148;28;20078;-76
2023/01/18 07:29:58;;;;;;;3.22;0.90;;;;;;;;;;10438937;28;20017;-75
2023/01/18 07:34:59;;;;;;;8.60;1.10;;;;;;;;;;10440545;28;20044;-73
2023/01/18 07:40:00;;;;;;;4.27;0.70;;;;;;;;;;10430158;28;20025;-77
2023/01/18 07:45:01;;;;;;;4.07;0.68;;;;;;;;;;10400707;28;20049;-73
2023/01/18 07:50:01;;;;;;;2.55;0.55;;;;;;;;;;10413493;28;20036;-74
2023/01/18 07:55:01;;;;;;;3.50;0.82;;;;;;;;;;10433111;28;20031;-71
2023/01/18 08:00:02;;;;;;;7.00;1.00;;;;;;;;;;10452361;28;20643;-77
2023/01/18 08:05:03;;;;;;;5.47;0.85;;;;;;;;;;10417746;28;20646;-73
2023/01/18 08:10:04;;;;;;;1.48;0.73;;;;;;;;;;10424013;28;20016;-74
2023/01/18 08:15:04;;;;;;;14.73;2.38;;;;;;;;;;10436607;28;20024;-74
2023/01/18 08:20:08;;;;;;;4.65;0.77;;;;;;;;;;10448811;28;20132;-71
2023/01/18 08:25:08;;;;;;;4.25;0.88;;;;;;;;;;10462350;28;20008;-75
2023/01/18 08:30:09;;;;;;;3.65;0.70;;;;;;;;;;10430809;28;20029;-78
2023/01/18 08:35:09;;;;;;;5.78;0.68;;;;;;;;;;10430550;28;20033;-71
2023/01/18 08:40:10;;;;;;;7.85;0.70;;;;;;;;;;10444950;28;20084;-76
2023/01/18 08:45:10;;;;;;;3.22;0.80;;;;;;;;;;10441586;28;20063;-72
2023/01/18 08:50:10;;;;;;;7.40;1.00;;;;;;;;;;10453622;28;20154;-76
2023/01/18 08:55:11;;;;;;;4.82;0.77;;;;;;;;;;10437786;28;20021;-73
2023/01/18 09:00:11;;;;;;;9.48;1.48;;;;;;;;;;10444772;28;20017;-73
2023/01/18 09:05:12;;;;;;;11.55;0.85;;;;;;;;;;10456489;28;20029;-72
2023/01/18 09:10:12;;;;;;;8.20;0.70;;;;;;;;;;10451833;28;20025;-74
2023/01/18 09:15:13;;;;;;;11.07;0.80;;;;;;;;;;10428512;28;20039;-76
2023/01/18 09:20:13;;;;;;;4.00;0.88;;;;;;;;;;10440579;28;20111;-75
2023/01/18 09:25:14;;;;;;;10.80;0.70;;;;;;;;;;10437429;28;20029;-76
2023/01/18 09:30:14;;;;;;;4.78;0.88;;;;;;;;;;10435590;28;20106;-76
2023/01/18 09:35:17;;;;;;;2.95;0.80;;;;;;;;;;10439159;28;20129;-76
2023/01/18 09:40:18;;;;;;;3.72;0.80;;;;;;;;;;10460771;28;20075;-75
2023/01/18 09:45:29;;;;;;;6.75;0.70;;;;;;;;;;10446016;28;20056;-73
2023/01/18 09:50:32;;;;;;;3.50;0.70;;;;;;;;;;10458142;28;20025;-74
2023/01/18 09:55:47;;;;;;;6.50;1.60;;;;;;;;;;10450611;28;20029;-74
2023/01/18 10:00:48;;;;;;;4.88;1.20;;;;;;;;;;10439192;28;20033;-78
2023/01/18 10:06:07;;;;;;;9.87;1.17;;;;;;;;;;10440986;28;20474;-75
2023/01/18 10:11:11;;;;;;;4.18;0.85;;;;;;;;;;10438464;28;20020;-77
2023/01/18 10:16:15;;;;;;;5.90;1.05;;;;;;;;;;10456094;28;20071;-72
2023/01/18 10:21:47;;;;;;;5.28;1.48;;;;;;;;;;10415611;28;20024;-74
2023/01/18 10:26:51;;;;;;;4.78;0.75;;;;;;;;;;10420551;28;20064;-75
2023/01/18 10:31:57;;;;;;;3.53;0.90;;;;;;;;;;10426749;28;20505;-75
2023/01/18 10:37:01;;;;;;;6.20;2.22;;;;;;;;;;10441020;28;20025;-75
2023/01/18 10:42:03;;;;;;;6.13;0.95;;;;;;;;;;10451757;28;20149;-71
2023/01/18 10:47:03;;;;;;;5.05;0.80;;;;;;;;;;10439776;28;20036;-76
2023/01/18 10:52:27;;;;;;;4.53;0.80;;;;;;;;;;10424213;28;20483;-72
2023/01/18 10:57:29;;;;;;;2.83;0.80;;;;;;;;;;10437263;28;20060;-74
2023/01/18 11:02:31;;;;;;;5.65;0.68;;;;;;;;;;10413119;28;20160;-71
2023/01/18 11:07:32;;;;;;;11.02;1.13;;;;;;;;;;10438382;28;20033;-72
2023/01/18 11:12:36;;;;;;;5.40;0.63;;;;;;;;;;10427368;28;20021;-80
2023/01/18 11:17:37;;;;;;;7.20;0.82;;;;;;;;;;10421761;28;20392;-80
2023/01/18 11:22:50;;;;;;;6.22;0.98;;;;;;;;;;10426092;28;20024;-73
2023/01/18 11:27:50;;;;;;;7.55;2.10;;;;;;;;;;10418597;28;20577;-75
2023/01/18 11:32:51;;;;;;;8.73;1.03;;;;;;;;;;10421994;28;20037;-72
2023/01/18 11:37:56;;;;;;;8.65;0.60;;;;;;;;;;10411170;28;20569;-75
2023/01/18 11:43:02;;;;;;;8.57;0.70;;;;;;;;;;10395934;28;20049;-75
2023/01/18 11:48:13;;;;;;;7.50;0.77;;;;;;;;;;10438648;28;20239;-72
2023/01/18 11:53:20;;;;;;;4.75;0.90;;;;;;;;;;10438527;28;20028;-70
2023/01/18 11:58:30;;;;;;;6.82;1.10;;;;;;;;;;10421115;28;20140;-71
2023/01/18 12:03:33;;;;;;;12.68;1.25;;;;;;;;;;10411322;28;20025;-72
2023/01/18 12:08:37;;;;;;;7.57;1.40;;;;;;;;;;10391738;28;20033;-73
2023/01/18 12:13:59;;;;;;;5.50;0.90;;;;;;;;;;10381749;28;20021;-74
2023/01/18 12:19:11;;;;;;;7.45;1.17;;;;;;;;;;10416653;28;20021;-76
2023/01/18 12:24:32;;;;;;;4.07;0.98;;;;;;;;;;10422719;28;20024;-73
2023/01/18 12:29:33;;;;;;;9.55;1.10;;;;;;;;;;10405038;28;20036;-80
2023/01/18 12:34:33;;;;;;;5.43;1.03;;;;;;;;;;10421268;28;20036;-73
2023/01/18 12:40:00;;;;;;;8.00;1.25;;;;;;;;;;10422084;28;20017;-72
2023/01/18 12:45:36;;;;;;;11.57;1.10;;;;;;;;;;10439623;28;20056;-75
2023/01/18 12:50:37;;;;;;;11.60;1.20;;;;;;;;;;10348139;28;20045;-72
2023/01/18 12:55:39;;;;;;;14.23;1.48;;;;;;;;;;10409312;28;20025;-77
2023/01/18 13:00:44;;;;;;;11.10;1.80;;;;;;;;;;10429115;28;20491;-73
2023/01/18 13:05:51;;;;;;;6.57;1.00;;;;;;;;;;10428793;28;20029;-77
2023/01/18 13:11:02;;;;;;;12.02;1.63;;;;;;;;;;10429004;28;20411;-80
2023/01/18 13:16:11;;;;;;;18.63;2.28;;;;;;;;;;10428534;28;20115;-73
2023/01/18 13:21:17;;;;;;;10.00;1.55;;;;;;;;;;10445803;28;20398;-72
2023/01/18 13:26:25;;;;;;;8.50;1.40;;;;;;;;;;10427271;28;20029;-72
2023/01/18 13:31:30;;;;;;;8.13;1.63;;;;;;;;;;10424306;28;20098;-75
2023/01/18 13:36:43;;;;;;;6.88;1.40;;;;;;;;;;10424141;28;20025;-73
2023/01/18 13:42:03;;;;;;;14.80;1.55;;;;;;;;;;10444046;28;20067;-73
2023/01/18 13:47:22;;;;;;;16.77;1.77;;;;;;;;;;10443285;28;20122;-76
2023/01/18 13:52:34;;;;;;;9.77;1.80;;;;;;;;;;10443599;28;20032;-78
2023/01/18 13:57:34;;;;;;;8.63;1.60;;;;;;;;;;10448288;28;20104;-79
2023/01/18 14:02:41;;;;;;;11.93;4.53;;;;;;;;;;10454397;28;20021;-74
2023/01/18 14:07:43;;;;;;;16.25;2.15;;;;;;;;;;10439497;28;20037;-73
2023/01/18 14:12:45;;;;;;;15.45;2.22;;;;;;;;;;10433536;28;20503;-73
2023/01/18 14:17:45;;;;;;;14.00;2.65;;;;;;;;;;10422474;28;20028;-72
2023/01/18 14:23:04;;;;;;;6.78;1.90;;;;;;;;;;10433980;28;20019;-77
2023/01/18 14:28:16;;;;;;;17.30;2.00;;;;;;;;;;10435210;28;20021;-77
2023/01/18 14:33:25;;;;;;;22.42;2.95;;;;;;;;;;10430068;28;20170;-72
2023/01/18 14:38:26;;;;;;;21.25;1.95;;;;;;;;;;10429450;28;20029;-81
2023/01/18 14:43:31;;;;;;;25.90;2.53;;;;;;;;;;10432256;28;20667;-76
2023/01/18 14:48:33;;;;;;;13.27;2.13;;;;;;;;;;10432788;28;20560;-79
2023/01/18 14:53:40;;;;;;;15.45;2.28;;;;;;;;;;10414482;28;20029;-74
2023/01/18 14:58:41;;;;;;;15.18;1.65;;;;;;;;;;10438222;28;20533;-76
2023/01/18 15:03:42;;;;;;;14.43;2.13;;;;;;;;;;10428515;28;20017;-75
2023/01/18 15:08:43;;;;;;;11.02;2.25;;;;;;;;;;10416024;28;20025;-73
2023/01/18 15:13:50;;;;;;;15.93;2.47;;;;;;;;;;10439090;28;20078;-72
2023/01/18 15:18:52;;;;;;;20.98;3.70;;;;;;;;;;10423536;28;20033;-77
2023/01/18 15:23:57;;;;;;;12.32;2.28;;;;;;;;;;10423299;28;20074;-73
2023/01/18 15:29:04;;;;;;;23.70;2.55;;;;;;;;;;10429410;28;20029;-76
2023/01/18 15:34:04;;;;;;;17.30;3.17;;;;;;;;;;10433600;28;20712;-73
2023/01/18 15:39:04;;;;;;;12.50;2.47;;;;;;;;;;10438826;28;20025;-73
2023/01/18 15:44:05;;;;;;;17.02;2.15;;;;;;;;;;10419744;28;20048;-75
2023/01/18 15:49:11;;;;;;;20.67;2.37;;;;;;;;;;10427401;28;20505;-75
2023/01/18 15:54:19;;;;;;;13.30;3.05;;;;;;;;;;10434468;28;20301;-74
2023/01/18 15:59:21;;;;;;;19.77;2.20;;;;;;;;;;10439562;28;20441;-73
2023/01/18 16:04:21;;;;;;;24.90;2.53;;;;;;;;;;10450223;28;20479;-79
2023/01/18 16:09:27;;;;;;;8.63;2.23;;;;;;;;;;10426883;28;20102;-76
2023/01/18 16:14:28;;;;;;;16.45;1.70;;;;;;;;;;10418156;28;20033;-75
2023/01/18 16:19:34;;;;;;;18.15;3.17;;;;;;;;;;10424879;28;20028;-71
2023/01/18 16:24:39;;;;;;;11.15;1.90;;;;;;;;;;10443304;28;20242;-77
2023/01/18 16:29:41;;;;;;;12.50;2.05;;;;;;;;;;10431095;28;20032;-77
2023/01/18 16:34:41;;;;;;;11.85;1.95;;;;;;;;;;10434465;28;20031;-72
2023/01/18 16:39:42;;;;;;;20.52;2.92;;;;;;;;;;10430223;28;20021;-72
2023/01/18 16:44:44;;;;;;;14.32;2.20;;;;;;;;;;10424385;28;20110;-73
2023/01/18 16:49:44;;;;;;;19.02;2.03;;;;;;;;;;10427638;28;20029;-72
2023/01/18 16:54:45;;;;;;;11.18;2.00;;;;;;;;;;10434043;28;20029;-76
2023/01/18 16:59:45;;;;;;;15.18;4.15;;;;;;;;;;10430709;28;20111;-73
2023/01/18 17:04:45;;;;;;;8.57;2.47;;;;;;;;;;10428135;28;20436;-72
2023/01/18 17:09:46;;;;;;;19.47;2.60;;;;;;;;;;10437405;28;20276;-77
2023/01/18 17:14:46;;;;;;;8.85;2.33;;;;;;;;;;10434322;28;20025;-72
2023/01/18 17:19:46;;;;;;;24.40;3.40;;;;;;;;;;10430368;28;20021;-72
2023/01/18 17:24:47;;;;;;;16.85;3.25;;;;;;;;;;10458806;28;20055;-74
2023/01/18 17:29:48;;;;;;;17.58;3.25;;;;;;;;;;10437989;28;20025;-73
2023/01/18 17:34:48;;;;;;;21.20;2.83;;;;;;;;;;10430914;28;20029;-72
2023/01/18 17:39:48;;;;;;;20.33;2.90;;;;;;;;;;10417673;28;20029;-75
2023/01/18 17:44:49;;;;;;;18.15;4.85;;;;;;;;;;10426260;28;20056;-77
2023/01/18 17:49:49;;;;;;;16.60;2.63;;;;;;;;;;10402904;28;20510;-75
2023/01/18 17:54:49;;;;;;;21.30;3.95;;;;;;;;;;10427050;28;20036;-71
2023/01/18 17:59:54;;;;;;;18.45;3.67;;;;;;;;;;10445204;28;20141;-76
2023/01/18 18:04:54;;;;;;;16.45;2.60;;;;;;;;;;10425890;28;20037;-76
2023/01/18 18:09:59;;;;;;;21.55;3.45;;;;;;;;;;10425835;28;20055;-73
2023/01/18 18:15:00;;;;;;;18.73;3.83;;;;;;;;;;10421989;28;20029;-73
2023/01/18 18:20:00;;;;;;;18.85;2.88;;;;;;;;;;10426207;28;20033;-70
2023/01/18 18:25:01;;;;;;;15.50;2.90;;;;;;;;;;10425497;28;20096;-73
2023/01/18 18:30:01;;;;;;;25.65;4.40;;;;;;;;;;10454830;28;20053;-73
2023/01/18 18:35:01;;;;;;;43.78;11.20;;;;;;;;;;10435676;28;20426;-74
2023/01/18 18:40:01;;;;;;;26.45;3.97;;;;;;;;;;10439060;28;20055;-78
2023/01/18 18:45:02;;;;;;;32.37;5.63;;;;;;;;;;10402397;28;20822;-72
2023/01/18 18:50:02;;;;;;;32.27;4.53;;;;;;;;;;10414330;28;20036;-78
2023/01/18 18:55:03;;;;;;;31.43;5.60;;;;;;;;;;10416311;28;20313;-72
2023/01/18 19:00:06;;;;;;;29.80;4.77;;;;;;;;;;10413790;28;20033;-72
2023/01/18 19:05:06;;;;;;;22.85;5.22;;;;;;;;;;10428369;28;20353;-71
2023/01/18 19:10:08;;;;;;;30.60;6.13;;;;;;;;;;10420662;28;20491;-72
2023/01/18 19:15:08;;;;;;;17.95;4.45;;;;;;;;;;10420521;28;20037;-72
2023/01/18 19:20:12;;;;;;;27.45;4.70;;;;;;;;;;10421747;28;20094;-73
2023/01/18 19:25:12;;;;;;;25.88;5.13;;;;;;;;;;10418389;28;20063;-74
2023/01/18 19:30:16;;;;;;;30.90;4.93;;;;;;;;;;10430942;28;20514;-73
2023/01/18 19:35:18;;;;;;;21.70;4.60;;;;;;;;;;10431721;28;20326;-74
2023/01/18 19:40:18;;;;;;;30.65;6.25;;;;;;;;;;10427984;28;20108;-73
2023/01/18 19:45:19;;;;;;;26.40;5.90;;;;;;;;;;10425355;28;20449;-73
2023/01/18 19:50:20;;;;;;;30.73;4.20;;;;;;;;;;10425512;28;20032;-73
2023/01/18 19:55:20;;;;;;;19.05;3.85;;;;;;;;;;10428197;28;20032;-74
2023/01/18 20:00:21;;;;;;;22.03;4.57;;;;;;;;;;10432939;28;20103;-73
2023/01/18 20:05:21;;;;;;;27.73;5.88;;;;;;;;;;10431555;28;20494;-71
2023/01/18 20:10:21;;;;;;;29.83;4.97;;;;;;;;;;10427458;28;20059;-73
2023/01/18 20:15:22;;;;;;;22.77;5.68;;;;;;;;;;10410512;28;20032;-74
2023/01/18 20:20:22;;;;;;;17.65;5.28;;;;;;;;;;10426519;28;20025;-71
2023/01/18 20:25:22;;;;;;;21.58;5.30;;;;;;;;;;10426332;28;20514;-74
2023/01/18 20:30:23;;;;;;;21.52;5.90;;;;;;;;;;10425097;28;20036;-75
2023/01/18 20:35:23;;;;;;;27.88;6.88;;;;;;;;;;10440202;28;20025;-74
2023/01/18 20:40:23;;;;;;;31.38;6.43;;;;;;;;;;10422046;28;20025;-75
2023/01/18 20:45:24;;;;;;;37.35;7.55;;;;;;;;;;10432211;28;20055;-77
2023/01/18 20:50:24;;;;;;;34.70;7.17;;;;;;;;;;10423627;28;20028;-76
2023/01/18 20:55:24;;;;;;;33.37;7.70;;;;;;;;;;10411478;28;20483;-75
2023/01/18 21:00:24;;;;;;;35.00;7.20;;;;;;;;;;10417312;28;20079;-73
2023/01/18 21:05:26;;;;;;;30.30;5.47;;;;;;;;;;10438609;28;20036;-77
2023/01/18 21:10:37;;;;;;;30.40;5.03;;;;;;;;;;10448767;28;20136;-75
2023/01/18 21:15:37;;;;;;;32.13;6.38;;;;;;;;;;10433787;28;20060;-76
2023/01/18 21:20:38;;;;;;;28.65;4.28;;;;;;;;;;10453438;28;20031;-75
2023/01/18 21:25:38;;;;;;;28.60;5.47;;;;;;;;;;10434810;28;20024;-78
2023/01/18 21:30:38;;;;;;;24.23;5.40;;;;;;;;;;10434211;28;20356;-78
2023/01/18 21:35:38;;;;;;;23.48;6.28;;;;;;;;;;10425270;28;20047;-72
2023/01/18 21:40:39;;;;;;;27.98;5.38;;;;;;;;;;10425447;28;20021;-73
2023/01/18 21:45:54;;;;;;;21.43;5.00;;;;;;;;;;10426963;28;20506;-78
2023/01/18 21:56:17;;;;;;;36.15;6.90;;;;;;;;;;10441449;28;20028;-72
2023/01/18 22:01:22;;;;;;;30.52;6.55;;;;;;;;;;10426662;28;20029;-72
2023/01/18 22:06:22;;;;;;;35.00;5.40;;;;;;;;;;10440922;28;20025;-73
2023/01/18 22:11:22;;;;;;;32.35;6.30;;;;;;;;;;10422840;28;20024;-75
2023/01/18 22:16:23;;;;;;;34.28;5.63;;;;;;;;;;10426492;28;20024;-77
2023/01/18 22:21:24;;;;;;;46.45;7.18;;;;;;;;;;10422799;28;20041;-72
2023/01/18 22:26:25;;;;;;;42.65;6.40;;;;;;;;;;10475217;23;20140;-74
2023/01/18 22:31:26;;;;;;;28.65;6.57;;;;;;;;;;10463582;28;20107;-75
2023/01/18 22:36:26;;;;;;;27.40;4.50;;;;;;;;;;10463565;28;20024;-76
2023/01/18 22:41:28;;;;;;;40.92;4.18;;;;;;;;;;10466089;28;20071;-75
2023/01/18 22:46:28;;;;;;;35.95;5.80;;;;;;;;;;10466691;28;20024;-74
2023/01/18 22:51:28;;;;;;;26.20;4.40;;;;;;;;;;10481396;28;20506;-77
2023/01/18 22:56:28;;;;;;;34.70;5.90;;;;;;;;;;10483261;28;20469;-74
2023/01/18 23:01:30;;;;;;;26.98;4.22;;;;;;;;;;10483391;28;20013;-75
2023/01/18 23:06:44;;;;;;;48.70;5.60;;;;;;;;;;10465061;28;20021;-76
2023/01/18 23:11:46;;;;;;;25.70;3.63;;;;;;;;;;10465715;28;20214;-77
2023/01/18 23:22:09;;;;;;;23.17;3.25;;;;;;;;;;10474003;28;20406;-71
2023/01/18 23:27:09;;;;;;;24.08;4.95;;;;;;;;;;10439729;28;20577;-78
2023/01/18 23:32:09;;;;;;;33.58;3.85;;;;;;;;;;10455195;28;20127;-78
2023/01/18 23:37:10;;;;;;;29.52;3.05;;;;;;;;;;10463758;28;20021;-72
2023/01/18 23:58:07;;;;;;;29.98;2.53;;;;;;;;;;10481418;28;20028;-75
